sensor_id;sensor_type;location;lat;lon;timestamp;P1;durP1;ratioP1;P2;durP2;ratioP2
50559;SDS011;36510;52.610;13.468;2022-10-24T00:04:09;9.55;;;7.70;;
50559;SDS011;36510;52.610;13.468;2022-10-24T00:08:59;11.82;;;8.15;;
50559;SDS011;36510;52.610;13.468;2022-10-24T00:13:50;9.30;;;7.68;;
50559;SDS011;36510;52.610;13.468;2022-10-24T00:18:42;12.02;;;8.35;;
50559;SDS011;36510;52.610;13.468;2022-10-24T00:23:32;12.07;;;9.13;;
50559;SDS011;36510;52.610;13.468;2022-10-24T00:28:23;9.65;;;8.13;;
50559;SDS011;36510;52.610;13.468;2022-10-24T00:33:14;10.90;;;8.15;;
50559;SDS011;36510;52.610;13.468;2022-10-24T00:38:04;13.20;;;8.38;;
50559;SDS011;36510;52.610;13.468;2022-10-24T00:42:55;10.80;;;7.97;;
50559;SDS011;36510;52.610;13.468;2022-10-24T00:47:45;14.73;;;9.65;;
50559;SDS011;36510;52.610;13.468;2022-10-24T00:52:37;13.82;;;9.63;;
50559;SDS011;36510;52.610;13.468;2022-10-24T00:57:37;14.32;;;9.75;;
50559;SDS011;36510;52.610;13.468;2022-10-24T01:02:33;14.00;;;9.85;;
50559;SDS011;36510;52.610;13.468;2022-10-24T01:12:37;11.63;;;9.30;;
50559;SDS011;36510;52.610;13.468;2022-10-24T01:17:52;12.65;;;9.50;;
50559;SDS011;36510;52.610;13.468;2022-10-24T01:28:18;12.70;;;8.60;;
50559;SDS011;36510;52.610;13.468;2022-10-24T01:33:15;11.18;;;8.52;;
50559;SDS011;36510;52.610;13.468;2022-10-24T01:43:17;12.43;;;9.27;;
50559;SDS011;36510;52.610;13.468;2022-10-24T01:48:13;13.02;;;9.45;;
50559;SDS011;36510;52.610;13.468;2022-10-24T01:53:06;13.70;;;9.35;;
50559;SDS011;36510;52.610;13.468;2022-10-24T01:57:58;11.20;;;9.05;;
50559;SDS011;36510;52.610;13.468;2022-10-24T02:02:56;12.35;;;9.55;;
50559;SDS011;36510;52.610;13.468;2022-10-24T02:08:09;11.85;;;8.90;;
50559;SDS011;36510;52.610;13.468;2022-10-24T02:13:11;14.25;;;8.70;;
50559;SDS011;36510;52.610;13.468;2022-10-24T02:18:08;10.25;;;8.77;;
50559;SDS011;36510;52.610;13.468;2022-10-24T02:23:11;10.50;;;9.23;;
50559;SDS011;36510;52.610;13.468;2022-10-24T02:28:15;11.40;;;8.82;;
50559;SDS011;36510;52.610;13.468;2022-10-24T02:33:10;12.32;;;8.98;;
50559;SDS011;36510;52.610;13.468;2022-10-24T02:38:03;11.93;;;8.90;;
50559;SDS011;36510;52.610;13.468;2022-10-24T02:42:59;11.32;;;8.77;;
50559;SDS011;36510;52.610;13.468;2022-10-24T02:47:54;10.20;;;7.68;;
50559;SDS011;36510;52.610;13.468;2022-10-24T02:52:49;10.82;;;7.68;;
50559;SDS011;36510;52.610;13.468;2022-10-24T02:57:39;11.93;;;7.55;;
50559;SDS011;36510;52.610;13.468;2022-10-24T03:02:30;8.95;;;7.03;;
50559;SDS011;36510;52.610;13.468;2022-10-24T03:07:20;9.18;;;7.30;;
50559;SDS011;36510;52.610;13.468;2022-10-24T03:12:14;9.60;;;7.43;;
50559;SDS011;36510;52.610;13.468;2022-10-24T03:17:05;8.18;;;7.07;;
50559;SDS011;36510;52.610;13.468;2022-10-24T03:21:56;8.73;;;7.05;;
50559;SDS011;36510;52.610;13.468;2022-10-24T03:26:46;9.30;;;7.18;;
50559;SDS011;36510;52.610;13.468;2022-10-24T03:31:41;11.30;;;7.82;;
50559;SDS011;36510;52.610;13.468;2022-10-24T03:36:31;9.80;;;7.38;;
50559;SDS011;36510;52.610;13.468;2022-10-24T03:41:21;11.60;;;7.40;;
50559;SDS011;36510;52.610;13.468;2022-10-24T03:46:12;10.15;;;7.47;;
50559;SDS011;36510;52.610;13.468;2022-10-24T03:51:02;8.98;;;6.10;;
50559;SDS011;36510;52.610;13.468;2022-10-24T03:55:53;8.43;;;6.00;;
50559;SDS011;36510;52.610;13.468;2022-10-24T04:00:45;10.95;;;6.88;;
50559;SDS011;36510;52.610;13.468;2022-10-24T04:05:36;7.88;;;6.88;;
50559;SDS011;36510;52.610;13.468;2022-10-24T04:10:26;10.65;;;7.20;;
50559;SDS011;36510;52.610;13.468;2022-10-24T04:15:17;7.95;;;6.47;;
50559;SDS011;36510;52.610;13.468;2022-10-24T04:20:08;7.07;;;6.05;;
50559;SDS011;36510;52.610;13.468;2022-10-24T04:24:59;8.52;;;5.88;;
50559;SDS011;36510;52.610;13.468;2022-10-24T04:29:49;7.80;;;5.90;;
50559;SDS011;36510;52.610;13.468;2022-10-24T04:34:40;9.27;;;6.10;;
50559;SDS011;36510;52.610;13.468;2022-10-24T04:39:30;11.15;;;6.13;;
50559;SDS011;36510;52.610;13.468;2022-10-24T04:44:20;7.93;;;5.38;;
50559;SDS011;36510;52.610;13.468;2022-10-24T04:49:11;8.98;;;5.97;;
50559;SDS011;36510;52.610;13.468;2022-10-24T04:54:02;9.23;;;6.57;;
50559;SDS011;36510;52.610;13.468;2022-10-24T04:58:52;8.98;;;7.70;;
50559;SDS011;36510;52.610;13.468;2022-10-24T05:03:43;9.27;;;6.30;;
50559;SDS011;36510;52.610;13.468;2022-10-24T05:08:33;11.45;;;7.25;;
50559;SDS011;36510;52.610;13.468;2022-10-24T05:13:25;7.75;;;6.63;;
50559;SDS011;36510;52.610;13.468;2022-10-24T05:18:15;10.88;;;7.07;;
50559;SDS011;36510;52.610;13.468;2022-10-24T05:23:05;9.20;;;6.07;;
50559;SDS011;36510;52.610;13.468;2022-10-24T05:27:56;7.90;;;6.25;;
50559;SDS011;36510;52.610;13.468;2022-10-24T05:32:46;8.68;;;6.05;;
50559;SDS011;36510;52.610;13.468;2022-10-24T05:37:37;11.93;;;6.15;;
50559;SDS011;36510;52.610;13.468;2022-10-24T05:42:28;9.25;;;5.90;;
50559;SDS011;36510;52.610;13.468;2022-10-24T05:47:18;8.75;;;6.05;;
50559;SDS011;36510;52.610;13.468;2022-10-24T05:52:09;9.23;;;6.30;;
50559;SDS011;36510;52.610;13.468;2022-10-24T05:56:59;7.50;;;5.47;;
50559;SDS011;36510;52.610;13.468;2022-10-24T06:01:50;8.15;;;5.68;;
50559;SDS011;36510;52.610;13.468;2022-10-24T06:06:41;8.40;;;5.82;;
50559;SDS011;36510;52.610;13.468;2022-10-24T06:11:33;7.97;;;4.95;;
50559;SDS011;36510;52.610;13.468;2022-10-24T06:16:24;7.60;;;5.90;;
50559;SDS011;36510;52.610;13.468;2022-10-24T06:21:16;8.77;;;5.68;;
50559;SDS011;36510;52.610;13.468;2022-10-24T06:26:07;6.10;;;5.50;;
50559;SDS011;36510;52.610;13.468;2022-10-24T06:30:59;7.20;;;5.60;;
50559;SDS011;36510;52.610;13.468;2022-10-24T06:35:52;8.80;;;5.90;;
50559;SDS011;36510;52.610;13.468;2022-10-24T06:40:42;13.90;;;6.18;;
50559;SDS011;36510;52.610;13.468;2022-10-24T06:45:33;9.20;;;6.60;;
50559;SDS011;36510;52.610;13.468;2022-10-24T06:50:23;9.50;;;6.28;;
50559;SDS011;36510;52.610;13.468;2022-10-24T06:55:14;8.05;;;5.93;;
50559;SDS011;36510;52.610;13.468;2022-10-24T07:00:05;8.20;;;5.90;;
50559;SDS011;36510;52.610;13.468;2022-10-24T07:04:57;10.15;;;6.03;;
50559;SDS011;36510;52.610;13.468;2022-10-24T07:09:52;9.32;;;6.07;;
50559;SDS011;36510;52.610;13.468;2022-10-24T07:14:44;11.38;;;5.90;;
50559;SDS011;36510;52.610;13.468;2022-10-24T07:19:35;9.27;;;5.82;;
50559;SDS011;36510;52.610;13.468;2022-10-24T07:24:25;10.15;;;6.20;;
50559;SDS011;36510;52.610;13.468;2022-10-24T07:29:16;9.25;;;6.70;;
50559;SDS011;36510;52.610;13.468;2022-10-24T07:34:07;13.32;;;6.82;;
50559;SDS011;36510;52.610;13.468;2022-10-24T07:38:58;10.18;;;6.40;;
50559;SDS011;36510;52.610;13.468;2022-10-24T07:43:50;10.05;;;6.30;;
50559;SDS011;36510;52.610;13.468;2022-10-24T07:48:40;18.58;;;7.00;;
50559;SDS011;36510;52.610;13.468;2022-10-24T07:53:31;9.40;;;6.30;;
50559;SDS011;36510;52.610;13.468;2022-10-24T07:58:22;11.60;;;5.88;;
50559;SDS011;36510;52.610;13.468;2022-10-24T08:03:12;9.75;;;5.68;;
50559;SDS011;36510;52.610;13.468;2022-10-24T08:08:03;8.65;;;5.07;;
50559;SDS011;36510;52.610;13.468;2022-10-24T08:12:54;10.55;;;4.65;;
50559;SDS011;36510;52.610;13.468;2022-10-24T08:17:44;8.88;;;4.60;;
50559;SDS011;36510;52.610;13.468;2022-10-24T08:22:35;7.32;;;4.90;;
50559;SDS011;36510;52.610;13.468;2022-10-24T08:27:25;11.23;;;5.00;;
50559;SDS011;36510;52.610;13.468;2022-10-24T08:32:16;10.65;;;5.20;;
50559;SDS011;36510;52.610;13.468;2022-10-24T08:37:06;10.57;;;4.82;;
50559;SDS011;36510;52.610;13.468;2022-10-24T08:41:59;8.93;;;4.50;;
50559;SDS011;36510;52.610;13.468;2022-10-24T08:47:03;9.93;;;4.22;;
50559;SDS011;36510;52.610;13.468;2022-10-24T08:57:27;12.23;;;4.28;;
50559;SDS011;36510;52.610;13.468;2022-10-24T09:02:22;7.03;;;4.07;;
50559;SDS011;36510;52.610;13.468;2022-10-24T09:07:17;11.85;;;3.97;;
50559;SDS011;36510;52.610;13.468;2022-10-24T09:12:13;8.13;;;3.80;;
50559;SDS011;36510;52.610;13.468;2022-10-24T09:17:09;10.73;;;3.78;;
50559;SDS011;36510;52.610;13.468;2022-10-24T09:22:22;9.52;;;3.75;;
50559;SDS011;36510;52.610;13.468;2022-10-24T09:27:18;9.00;;;4.00;;
50559;SDS011;36510;52.610;13.468;2022-10-24T09:32:16;11.00;;;3.58;;
50559;SDS011;36510;52.610;13.468;2022-10-24T09:42:19;8.70;;;3.50;;
50559;SDS011;36510;52.610;13.468;2022-10-24T09:47:20;7.93;;;3.70;;
50559;SDS011;36510;52.610;13.468;2022-10-24T09:52:16;6.03;;;3.10;;
50559;SDS011;36510;52.610;13.468;2022-10-24T09:57:14;9.60;;;3.65;;
50559;SDS011;36510;52.610;13.468;2022-10-24T10:07:07;6.88;;;3.13;;
50559;SDS011;36510;52.610;13.468;2022-10-24T10:12:01;11.07;;;3.33;;
50559;SDS011;36510;52.610;13.468;2022-10-24T10:16:58;11.40;;;3.47;;
50559;SDS011;36510;52.610;13.468;2022-10-24T10:21:55;8.52;;;3.03;;
50559;SDS011;36510;52.610;13.468;2022-10-24T10:26:49;9.07;;;3.35;;
50559;SDS011;36510;52.610;13.468;2022-10-24T10:31:40;9.35;;;2.90;;
50559;SDS011;36510;52.610;13.468;2022-10-24T10:36:34;7.75;;;3.50;;
50559;SDS011;36510;52.610;13.468;2022-10-24T10:52:11;10.63;;;3.55;;
50559;SDS011;36510;52.610;13.468;2022-10-24T10:57:02;11.23;;;2.53;;
50559;SDS011;36510;52.610;13.468;2022-10-24T11:07:16;12.93;;;3.03;;
50559;SDS011;36510;52.610;13.468;2022-10-24T11:17:19;6.07;;;2.50;;
50559;SDS011;36510;52.610;13.468;2022-10-24T11:22:52;11.57;;;3.47;;
50559;SDS011;36510;52.610;13.468;2022-10-24T11:27:59;8.07;;;2.70;;
50559;SDS011;36510;52.610;13.468;2022-10-24T11:32:58;8.15;;;3.00;;
50559;SDS011;36510;52.610;13.468;2022-10-24T11:37:56;10.70;;;3.05;;
50559;SDS011;36510;52.610;13.468;2022-10-24T11:43:08;11.70;;;3.10;;
50559;SDS011;36510;52.610;13.468;2022-10-24T11:58:20;6.97;;;2.60;;
50559;SDS011;36510;52.610;13.468;2022-10-24T12:03:24;8.30;;;3.00;;
50559;SDS011;36510;52.610;13.468;2022-10-24T12:19:14;6.85;;;2.47;;
50559;SDS011;36510;52.610;13.468;2022-10-24T12:24:18;7.30;;;2.38;;
50559;SDS011;36510;52.610;13.468;2022-10-24T12:29:19;9.48;;;2.67;;
50559;SDS011;36510;52.610;13.468;2022-10-24T12:39:09;9.88;;;2.63;;
50559;SDS011;36510;52.610;13.468;2022-10-24T12:44:22;6.90;;;2.80;;
50559;SDS011;36510;52.610;13.468;2022-10-24T12:49:25;7.95;;;2.30;;
50559;SDS011;36510;52.610;13.468;2022-10-24T12:54:18;7.80;;;2.67;;
50559;SDS011;36510;52.610;13.468;2022-10-24T12:59:44;6.93;;;2.70;;
50559;SDS011;36510;52.610;13.468;2022-10-24T13:04:40;6.72;;;2.30;;
50559;SDS011;36510;52.610;13.468;2022-10-24T13:09:43;8.55;;;2.20;;
50559;SDS011;36510;52.610;13.468;2022-10-24T13:15:00;8.68;;;2.38;;
50559;SDS011;36510;52.610;13.468;2022-10-24T13:20:17;8.65;;;2.30;;
50559;SDS011;36510;52.610;13.468;2022-10-24T13:25:27;5.95;;;2.35;;
50559;SDS011;36510;52.610;13.468;2022-10-24T13:30:25;8.02;;;2.30;;
50559;SDS011;36510;52.610;13.468;2022-10-24T13:35:17;7.55;;;2.00;;
50559;SDS011;36510;52.610;13.468;2022-10-24T13:40:13;5.32;;;2.15;;
50559;SDS011;36510;52.610;13.468;2022-10-24T13:45:22;7.28;;;2.35;;
50559;SDS011;36510;52.610;13.468;2022-10-24T13:50:20;6.20;;;2.03;;
50559;SDS011;36510;52.610;13.468;2022-10-24T13:55:16;6.15;;;1.90;;
50559;SDS011;36510;52.610;13.468;2022-10-24T14:00:21;8.48;;;2.47;;
50559;SDS011;36510;52.610;13.468;2022-10-24T14:05:18;7.70;;;2.28;;
50559;SDS011;36510;52.610;13.468;2022-10-24T14:10:14;6.70;;;2.53;;
50559;SDS011;36510;52.610;13.468;2022-10-24T14:15:15;6.38;;;2.60;;
50559;SDS011;36510;52.610;13.468;2022-10-24T14:24:58;7.05;;;2.88;;
50559;SDS011;36510;52.610;13.468;2022-10-24T14:29:50;7.05;;;2.60;;
50559;SDS011;36510;52.610;13.468;2022-10-24T14:34:42;6.18;;;2.85;;
50559;SDS011;36510;52.610;13.468;2022-10-24T14:39:33;7.05;;;2.30;;
50559;SDS011;36510;52.610;13.468;2022-10-24T14:44:24;10.38;;;2.60;;
50559;SDS011;36510;52.610;13.468;2022-10-24T14:54:21;6.35;;;2.58;;
50559;SDS011;36510;52.610;13.468;2022-10-24T14:59:24;8.55;;;2.60;;
50559;SDS011;36510;52.610;13.468;2022-10-24T15:04:27;8.98;;;2.65;;
50559;SDS011;36510;52.610;13.468;2022-10-24T15:09:27;5.38;;;2.78;;
50559;SDS011;36510;52.610;13.468;2022-10-24T15:19:27;8.98;;;3.15;;
50559;SDS011;36510;52.610;13.468;2022-10-24T15:24:19;8.98;;;2.95;;
50559;SDS011;36510;52.610;13.468;2022-10-24T15:34:03;10.70;;;2.60;;
50559;SDS011;36510;52.610;13.468;2022-10-24T15:38:59;7.57;;;2.83;;
50559;SDS011;36510;52.610;13.468;2022-10-24T15:49:05;8.05;;;2.90;;
50559;SDS011;36510;52.610;13.468;2022-10-24T15:53:55;7.60;;;3.35;;
50559;SDS011;36510;52.610;13.468;2022-10-24T15:58:46;8.48;;;2.95;;
50559;SDS011;36510;52.610;13.468;2022-10-24T16:03:36;6.18;;;3.22;;
50559;SDS011;36510;52.610;13.468;2022-10-24T16:08:26;11.32;;;3.70;;
50559;SDS011;36510;52.610;13.468;2022-10-24T16:13:18;11.95;;;3.90;;
50559;SDS011;36510;52.610;13.468;2022-10-24T16:18:10;8.25;;;3.10;;
50559;SDS011;36510;52.610;13.468;2022-10-24T16:23:01;6.50;;;3.15;;
50559;SDS011;36510;52.610;13.468;2022-10-24T16:27:52;10.23;;;3.38;;
50559;SDS011;36510;52.610;13.468;2022-10-24T16:32:43;9.80;;;3.13;;
50559;SDS011;36510;52.610;13.468;2022-10-24T16:37:33;6.72;;;2.58;;
50559;SDS011;36510;52.610;13.468;2022-10-24T16:42:24;7.72;;;3.05;;
50559;SDS011;36510;52.610;13.468;2022-10-24T16:47:15;7.40;;;2.88;;
50559;SDS011;36510;52.610;13.468;2022-10-24T16:52:06;8.07;;;3.50;;
50559;SDS011;36510;52.610;13.468;2022-10-24T16:56:56;10.35;;;3.30;;
50559;SDS011;36510;52.610;13.468;2022-10-24T17:01:47;9.18;;;3.00;;
50559;SDS011;36510;52.610;13.468;2022-10-24T17:06:37;7.10;;;2.63;;
50559;SDS011;36510;52.610;13.468;2022-10-24T17:11:28;5.90;;;2.60;;
50559;SDS011;36510;52.610;13.468;2022-10-24T17:16:18;6.95;;;2.90;;
50559;SDS011;36510;52.610;13.468;2022-10-24T17:21:09;5.93;;;2.70;;
50559;SDS011;36510;52.610;13.468;2022-10-24T17:26:02;8.45;;;2.53;;
50559;SDS011;36510;52.610;13.468;2022-10-24T17:30:52;8.98;;;3.17;;
50559;SDS011;36510;52.610;13.468;2022-10-24T17:35:45;7.30;;;2.38;;
50559;SDS011;36510;52.610;13.468;2022-10-24T17:40:41;4.85;;;2.40;;
50559;SDS011;36510;52.610;13.468;2022-10-24T17:45:33;7.10;;;2.75;;
50559;SDS011;36510;52.610;13.468;2022-10-24T17:50:23;6.10;;;2.50;;
50559;SDS011;36510;52.610;13.468;2022-10-24T17:55:22;5.30;;;2.65;;
50559;SDS011;36510;52.610;13.468;2022-10-24T18:00:14;3.67;;;2.15;;
50559;SDS011;36510;52.610;13.468;2022-10-24T18:05:05;7.53;;;2.20;;
50559;SDS011;36510;52.610;13.468;2022-10-24T18:09:56;7.38;;;2.28;;
50559;SDS011;36510;52.610;13.468;2022-10-24T18:14:49;5.53;;;2.45;;
50559;SDS011;36510;52.610;13.468;2022-10-24T18:19:39;9.15;;;2.30;;
50559;SDS011;36510;52.610;13.468;2022-10-24T18:24:30;5.18;;;2.30;;
50559;SDS011;36510;52.610;13.468;2022-10-24T18:29:20;5.97;;;2.50;;
50559;SDS011;36510;52.610;13.468;2022-10-24T18:34:11;4.22;;;2.30;;
50559;SDS011;36510;52.610;13.468;2022-10-24T18:39:01;6.95;;;2.17;;
50559;SDS011;36510;52.610;13.468;2022-10-24T18:43:52;4.38;;;2.10;;
50559;SDS011;36510;52.610;13.468;2022-10-24T18:48:43;6.05;;;2.70;;
50559;SDS011;36510;52.610;13.468;2022-10-24T18:53:34;7.75;;;2.40;;
50559;SDS011;36510;52.610;13.468;2022-10-24T18:58:30;8.35;;;2.40;;
50559;SDS011;36510;52.610;13.468;2022-10-24T19:03:24;3.88;;;2.00;;
50559;SDS011;36510;52.610;13.468;2022-10-24T19:08:23;6.38;;;2.70;;
50559;SDS011;36510;52.610;13.468;2022-10-24T19:13:14;6.60;;;2.50;;
50559;SDS011;36510;52.610;13.468;2022-10-24T19:18:05;6.40;;;2.40;;
50559;SDS011;36510;52.610;13.468;2022-10-24T19:23:00;6.90;;;2.33;;
50559;SDS011;36510;52.610;13.468;2022-10-24T19:27:54;6.72;;;2.50;;
50559;SDS011;36510;52.610;13.468;2022-10-24T19:32:44;6.78;;;2.28;;
50559;SDS011;36510;52.610;13.468;2022-10-24T19:37:35;8.23;;;2.75;;
50559;SDS011;36510;52.610;13.468;2022-10-24T19:42:26;6.13;;;2.80;;
50559;SDS011;36510;52.610;13.468;2022-10-24T19:47:17;5.43;;;2.80;;
50559;SDS011;36510;52.610;13.468;2022-10-24T19:52:08;6.13;;;2.50;;
50559;SDS011;36510;52.610;13.468;2022-10-24T19:56:58;8.13;;;2.60;;
50559;SDS011;36510;52.610;13.468;2022-10-24T20:01:49;6.45;;;2.25;;
50559;SDS011;36510;52.610;13.468;2022-10-24T20:06:39;5.22;;;2.38;;
50559;SDS011;36510;52.610;13.468;2022-10-24T20:11:30;4.60;;;2.20;;
50559;SDS011;36510;52.610;13.468;2022-10-24T20:16:20;7.53;;;2.65;;
50559;SDS011;36510;52.610;13.468;2022-10-24T20:21:12;7.70;;;3.03;;
50559;SDS011;36510;52.610;13.468;2022-10-24T20:26:07;7.97;;;2.63;;
50559;SDS011;36510;52.610;13.468;2022-10-24T20:31:00;5.40;;;2.67;;
50559;SDS011;36510;52.610;13.468;2022-10-24T20:35:50;5.13;;;2.55;;
50559;SDS011;36510;52.610;13.468;2022-10-24T20:40:41;4.80;;;2.60;;
50559;SDS011;36510;52.610;13.468;2022-10-24T20:45:32;7.60;;;3.38;;
50559;SDS011;36510;52.610;13.468;2022-10-24T20:50:23;6.90;;;4.05;;
50559;SDS011;36510;52.610;13.468;2022-10-24T20:55:14;7.88;;;3.95;;
50559;SDS011;36510;52.610;13.468;2022-10-24T21:00:04;6.60;;;3.08;;
50559;SDS011;36510;52.610;13.468;2022-10-24T21:04:55;10.95;;;3.15;;
50559;SDS011;36510;52.610;13.468;2022-10-24T21:09:46;6.50;;;2.90;;
50559;SDS011;36510;52.610;13.468;2022-10-24T21:14:36;5.25;;;2.67;;
50559;SDS011;36510;52.610;13.468;2022-10-24T21:19:27;7.90;;;2.78;;
50559;SDS011;36510;52.610;13.468;2022-10-24T21:24:19;6.53;;;3.10;;
50559;SDS011;36510;52.610;13.468;2022-10-24T21:29:09;6.10;;;3.13;;
50559;SDS011;36510;52.610;13.468;2022-10-24T21:34:00;7.13;;;2.60;;
50559;SDS011;36510;52.610;13.468;2022-10-24T21:38:52;7.63;;;2.75;;
50559;SDS011;36510;52.610;13.468;2022-10-24T21:43:46;7.68;;;2.85;;
50559;SDS011;36510;52.610;13.468;2022-10-24T21:48:37;8.98;;;2.75;;
50559;SDS011;36510;52.610;13.468;2022-10-24T21:53:29;7.38;;;3.05;;
50559;SDS011;36510;52.610;13.468;2022-10-24T21:58:20;7.10;;;3.05;;
50559;SDS011;36510;52.610;13.468;2022-10-24T22:03:10;8.68;;;3.10;;
50559;SDS011;36510;52.610;13.468;2022-10-24T22:08:01;6.78;;;3.03;;
50559;SDS011;36510;52.610;13.468;2022-10-24T22:12:51;7.18;;;3.10;;
50559;SDS011;36510;52.610;13.468;2022-10-24T22:17:41;7.50;;;3.60;;
50559;SDS011;36510;52.610;13.468;2022-10-24T22:22:32;8.05;;;3.17;;
50559;SDS011;36510;52.610;13.468;2022-10-24T22:27:22;8.90;;;3.05;;
50559;SDS011;36510;52.610;13.468;2022-10-24T22:32:13;5.15;;;2.63;;
50559;SDS011;36510;52.610;13.468;2022-10-24T22:37:07;6.38;;;2.90;;
50559;SDS011;36510;52.610;13.468;2022-10-24T22:42:12;7.85;;;3.33;;
50559;SDS011;36510;52.610;13.468;2022-10-24T22:52:20;10.63;;;3.30;;
50559;SDS011;36510;52.610;13.468;2022-10-24T22:57:11;7.03;;;3.20;;
50559;SDS011;36510;52.610;13.468;2022-10-24T23:07:24;8.07;;;2.90;;
50559;SDS011;36510;52.610;13.468;2022-10-24T23:12:19;8.40;;;3.78;;
50559;SDS011;36510;52.610;13.468;2022-10-24T23:17:21;7.15;;;2.97;;
50559;SDS011;36510;52.610;13.468;2022-10-24T23:27:19;6.22;;;3.30;;
50559;SDS011;36510;52.610;13.468;2022-10-24T23:32:30;10.35;;;4.18;;
50559;SDS011;36510;52.610;13.468;2022-10-24T23:37:30;8.02;;;4.90;;
50559;SDS011;36510;52.610;13.468;2022-10-24T23:42:24;8.90;;;3.60;;
50559;SDS011;36510;52.610;13.468;2022-10-24T23:58:07;5.93;;;3.22;;
